sensor_id;sensor_type;location;lat;lon;timestamp;P1;durP1;ratioP1;P2;durP2;ratioP2
77234;SDS011;66253;50.526;14.974;2024-02-21T00:00:01;21.10;;;6.20;;
77234;SDS011;66253;50.526;14.974;2024-02-21T00:02:32;17.10;;;6.10;;
77234;SDS011;66253;50.526;14.974;2024-02-21T00:05:00;18.90;;;7.00;;
77234;SDS011;66253;50.526;14.974;2024-02-21T00:07:30;20.10;;;7.50;;
77234;SDS011;66253;50.526;14.974;2024-02-21T00:09:58;18.70;;;7.00;;
77234;SDS011;66253;50.526;14.974;2024-02-21T00:12:26;20.40;;;7.30;;
77234;SDS011;66253;50.526;14.974;2024-02-21T00:14:54;17.00;;;6.20;;
77234;SDS011;66253;50.526;14.974;2024-02-21T00:17:22;17.50;;;6.20;;
77234;SDS011;66253;50.526;14.974;2024-02-21T00:19:50;16.10;;;7.00;;
77234;SDS011;66253;50.526;14.974;2024-02-21T00:22:18;18.60;;;6.60;;
77234;SDS011;66253;50.526;14.974;2024-02-21T00:24:47;14.80;;;6.00;;
77234;SDS011;66253;50.526;14.974;2024-02-21T00:27:15;16.50;;;6.00;;
77234;SDS011;66253;50.526;14.974;2024-02-21T00:29:43;14.70;;;4.20;;
77234;SDS011;66253;50.526;14.974;2024-02-21T00:32:11;13.70;;;5.40;;
77234;SDS011;66253;50.526;14.974;2024-02-21T00:34:39;14.80;;;5.70;;
77234;SDS011;66253;50.526;14.974;2024-02-21T00:37:07;14.30;;;5.90;;
77234;SDS011;66253;50.526;14.974;2024-02-21T00:39:36;14.90;;;6.50;;
77234;SDS011;66253;50.526;14.974;2024-02-21T00:42:04;16.10;;;6.90;;
77234;SDS011;66253;50.526;14.974;2024-02-21T00:44:32;15.50;;;6.80;;
77234;SDS011;66253;50.526;14.974;2024-02-21T00:47:01;11.50;;;4.40;;
77234;SDS011;66253;50.526;14.974;2024-02-21T00:49:29;12.50;;;4.30;;
77234;SDS011;66253;50.526;14.974;2024-02-21T00:51:57;14.20;;;5.90;;
77234;SDS011;66253;50.526;14.974;2024-02-21T00:54:25;14.90;;;7.20;;
77234;SDS011;66253;50.526;14.974;2024-02-21T00:56:53;17.70;;;8.10;;
77234;SDS011;66253;50.526;14.974;2024-02-21T00:59:21;13.80;;;6.80;;
77234;SDS011;66253;50.526;14.974;2024-02-21T01:01:50;14.00;;;6.80;;
77234;SDS011;66253;50.526;14.974;2024-02-21T01:04:18;14.20;;;5.20;;
77234;SDS011;66253;50.526;14.974;2024-02-21T01:06:46;14.30;;;5.80;;
77234;SDS011;66253;50.526;14.974;2024-02-21T01:09:14;17.90;;;5.60;;
77234;SDS011;66253;50.526;14.974;2024-02-21T01:11:42;14.70;;;5.50;;
77234;SDS011;66253;50.526;14.974;2024-02-21T01:14:10;17.50;;;5.30;;
77234;SDS011;66253;50.526;14.974;2024-02-21T01:16:39;12.80;;;5.20;;
77234;SDS011;66253;50.526;14.974;2024-02-21T01:19:08;16.10;;;5.30;;
77234;SDS011;66253;50.526;14.974;2024-02-21T01:21:36;13.40;;;4.70;;
77234;SDS011;66253;50.526;14.974;2024-02-21T01:24:05;16.50;;;5.00;;
77234;SDS011;66253;50.526;14.974;2024-02-21T01:26:33;14.80;;;4.80;;
77234;SDS011;66253;50.526;14.974;2024-02-21T01:29:01;14.90;;;4.40;;
77234;SDS011;66253;50.526;14.974;2024-02-21T01:31:30;14.00;;;4.80;;
77234;SDS011;66253;50.526;14.974;2024-02-21T01:33:58;9.00;;;4.30;;
77234;SDS011;66253;50.526;14.974;2024-02-21T01:36:26;12.70;;;4.70;;
77234;SDS011;66253;50.526;14.974;2024-02-21T01:38:55;11.70;;;4.20;;
77234;SDS011;66253;50.526;14.974;2024-02-21T01:41:26;10.10;;;4.30;;
77234;SDS011;66253;50.526;14.974;2024-02-21T01:43:57;11.30;;;4.80;;
77234;SDS011;66253;50.526;14.974;2024-02-21T01:46:25;11.60;;;4.60;;
77234;SDS011;66253;50.526;14.974;2024-02-21T01:48:53;9.80;;;4.00;;
77234;SDS011;66253;50.526;14.974;2024-02-21T01:51:22;13.80;;;5.10;;
77234;SDS011;66253;50.526;14.974;2024-02-21T01:53:51;10.80;;;4.40;;
77234;SDS011;66253;50.526;14.974;2024-02-21T01:56:21;12.60;;;5.40;;
77234;SDS011;66253;50.526;14.974;2024-02-21T01:58:50;11.70;;;3.80;;
77234;SDS011;66253;50.526;14.974;2024-02-21T02:01:18;11.70;;;4.70;;
77234;SDS011;66253;50.526;14.974;2024-02-21T02:03:47;14.00;;;4.30;;
77234;SDS011;66253;50.526;14.974;2024-02-21T02:06:16;15.30;;;5.50;;
77234;SDS011;66253;50.526;14.974;2024-02-21T02:08:44;11.40;;;4.80;;
77234;SDS011;66253;50.526;14.974;2024-02-21T02:11:14;9.20;;;3.50;;
77234;SDS011;66253;50.526;14.974;2024-02-21T02:13:42;9.20;;;3.60;;
77234;SDS011;66253;50.526;14.974;2024-02-21T02:16:11;9.50;;;3.70;;
77234;SDS011;66253;50.526;14.974;2024-02-21T02:18:39;10.80;;;4.20;;
77234;SDS011;66253;50.526;14.974;2024-02-21T02:21:08;12.20;;;4.80;;
77234;SDS011;66253;50.526;14.974;2024-02-21T02:23:43;11.20;;;4.30;;
77234;SDS011;66253;50.526;14.974;2024-02-21T02:26:11;11.50;;;4.10;;
77234;SDS011;66253;50.526;14.974;2024-02-21T02:28:39;13.80;;;5.60;;
77234;SDS011;66253;50.526;14.974;2024-02-21T02:31:07;11.10;;;5.00;;
77234;SDS011;66253;50.526;14.974;2024-02-21T02:33:36;12.40;;;4.20;;
77234;SDS011;66253;50.526;14.974;2024-02-21T02:36:04;12.80;;;5.00;;
77234;SDS011;66253;50.526;14.974;2024-02-21T02:38:33;12.60;;;4.40;;
77234;SDS011;66253;50.526;14.974;2024-02-21T02:41:01;11.50;;;5.50;;
77234;SDS011;66253;50.526;14.974;2024-02-21T02:43:30;10.40;;;4.50;;
77234;SDS011;66253;50.526;14.974;2024-02-21T02:45:58;10.30;;;4.30;;
77234;SDS011;66253;50.526;14.974;2024-02-21T02:48:26;11.50;;;4.10;;
77234;SDS011;66253;50.526;14.974;2024-02-21T02:50:54;12.50;;;4.00;;
77234;SDS011;66253;50.526;14.974;2024-02-21T02:53:22;11.50;;;4.40;;
77234;SDS011;66253;50.526;14.974;2024-02-21T02:55:50;12.00;;;4.80;;
77234;SDS011;66253;50.526;14.974;2024-02-21T02:58:19;10.70;;;4.00;;
77234;SDS011;66253;50.526;14.974;2024-02-21T03:00:47;16.00;;;4.60;;
77234;SDS011;66253;50.526;14.974;2024-02-21T03:03:15;12.80;;;4.90;;
77234;SDS011;66253;50.526;14.974;2024-02-21T03:05:43;12.70;;;4.90;;
77234;SDS011;66253;50.526;14.974;2024-02-21T03:08:12;12.80;;;6.00;;
77234;SDS011;66253;50.526;14.974;2024-02-21T03:10:40;13.00;;;4.80;;
77234;SDS011;66253;50.526;14.974;2024-02-21T03:13:08;10.30;;;4.10;;
77234;SDS011;66253;50.526;14.974;2024-02-21T03:15:36;10.60;;;3.60;;
77234;SDS011;66253;50.526;14.974;2024-02-21T03:18:05;12.90;;;4.30;;
77234;SDS011;66253;50.526;14.974;2024-02-21T03:20:34;10.00;;;4.00;;
77234;SDS011;66253;50.526;14.974;2024-02-21T03:23:02;11.70;;;4.00;;
77234;SDS011;66253;50.526;14.974;2024-02-21T03:25:30;9.30;;;4.10;;
77234;SDS011;66253;50.526;14.974;2024-02-21T03:27:58;7.80;;;2.60;;
77234;SDS011;66253;50.526;14.974;2024-02-21T03:30:26;9.80;;;2.90;;
77234;SDS011;66253;50.526;14.974;2024-02-21T03:32:54;9.60;;;3.90;;
77234;SDS011;66253;50.526;14.974;2024-02-21T03:35:23;9.60;;;3.10;;
77234;SDS011;66253;50.526;14.974;2024-02-21T03:37:51;7.70;;;2.90;;
77234;SDS011;66253;50.526;14.974;2024-02-21T03:40:19;9.50;;;3.00;;
77234;SDS011;66253;50.526;14.974;2024-02-21T03:42:47;8.10;;;2.60;;
77234;SDS011;66253;50.526;14.974;2024-02-21T03:45:16;8.60;;;2.90;;
77234;SDS011;66253;50.526;14.974;2024-02-21T03:47:44;9.00;;;2.60;;
77234;SDS011;66253;50.526;14.974;2024-02-21T03:50:12;9.60;;;2.90;;
77234;SDS011;66253;50.526;14.974;2024-02-21T03:52:41;8.10;;;2.80;;
77234;SDS011;66253;50.526;14.974;2024-02-21T03:55:09;8.00;;;3.20;;
77234;SDS011;66253;50.526;14.974;2024-02-21T03:57:37;12.20;;;3.70;;
77234;SDS011;66253;50.526;14.974;2024-02-21T04:00:06;11.10;;;3.10;;
77234;SDS011;66253;50.526;14.974;2024-02-21T04:05:02;7.20;;;2.70;;
77234;SDS011;66253;50.526;14.974;2024-02-21T04:07:31;7.60;;;3.10;;
77234;SDS011;66253;50.526;14.974;2024-02-21T04:09:59;10.20;;;2.90;;
77234;SDS011;66253;50.526;14.974;2024-02-21T04:12:29;10.60;;;3.10;;
77234;SDS011;66253;50.526;14.974;2024-02-21T04:14:57;9.80;;;2.90;;
77234;SDS011;66253;50.526;14.974;2024-02-21T04:17:25;8.90;;;2.80;;
77234;SDS011;66253;50.526;14.974;2024-02-21T04:19:56;11.60;;;3.80;;
77234;SDS011;66253;50.526;14.974;2024-02-21T04:22:31;9.60;;;3.50;;
77234;SDS011;66253;50.526;14.974;2024-02-21T04:25:00;11.70;;;3.40;;
77234;SDS011;66253;50.526;14.974;2024-02-21T04:27:30;12.80;;;3.60;;
77234;SDS011;66253;50.526;14.974;2024-02-21T04:29:58;10.10;;;3.50;;
77234;SDS011;66253;50.526;14.974;2024-02-21T04:32:28;9.50;;;3.30;;
77234;SDS011;66253;50.526;14.974;2024-02-21T04:34:56;14.70;;;3.70;;
77234;SDS011;66253;50.526;14.974;2024-02-21T04:37:25;11.90;;;3.10;;
77234;SDS011;66253;50.526;14.974;2024-02-21T04:39:53;7.50;;;2.80;;
77234;SDS011;66253;50.526;14.974;2024-02-21T04:42:21;10.10;;;3.40;;
77234;SDS011;66253;50.526;14.974;2024-02-21T04:44:49;7.70;;;2.70;;
77234;SDS011;66253;50.526;14.974;2024-02-21T04:47:18;12.50;;;2.90;;
77234;SDS011;66253;50.526;14.974;2024-02-21T04:49:46;10.80;;;3.30;;
77234;SDS011;66253;50.526;14.974;2024-02-21T04:52:14;9.80;;;3.50;;
77234;SDS011;66253;50.526;14.974;2024-02-21T04:54:42;10.20;;;3.40;;
77234;SDS011;66253;50.526;14.974;2024-02-21T04:57:10;9.90;;;3.40;;
77234;SDS011;66253;50.526;14.974;2024-02-21T04:59:39;10.80;;;3.60;;
77234;SDS011;66253;50.526;14.974;2024-02-21T05:02:07;9.90;;;3.30;;
77234;SDS011;66253;50.526;14.974;2024-02-21T05:04:35;9.70;;;3.40;;
77234;SDS011;66253;50.526;14.974;2024-02-21T05:07:03;13.60;;;5.00;;
77234;SDS011;66253;50.526;14.974;2024-02-21T05:09:32;18.10;;;6.30;;
77234;SDS011;66253;50.526;14.974;2024-02-21T05:12:00;12.70;;;4.80;;
77234;SDS011;66253;50.526;14.974;2024-02-21T05:14:29;18.20;;;5.80;;
77234;SDS011;66253;50.526;14.974;2024-02-21T05:16:57;19.90;;;6.50;;
77234;SDS011;66253;50.526;14.974;2024-02-21T05:19:26;14.30;;;6.00;;
77234;SDS011;66253;50.526;14.974;2024-02-21T05:21:54;10.40;;;4.30;;
77234;SDS011;66253;50.526;14.974;2024-02-21T05:24:22;10.20;;;4.90;;
77234;SDS011;66253;50.526;14.974;2024-02-21T05:26:51;10.80;;;4.40;;
77234;SDS011;66253;50.526;14.974;2024-02-21T05:29:19;8.80;;;2.90;;
77234;SDS011;66253;50.526;14.974;2024-02-21T05:31:57;12.40;;;3.90;;
77234;SDS011;66253;50.526;14.974;2024-02-21T05:34:25;12.90;;;4.90;;
77234;SDS011;66253;50.526;14.974;2024-02-21T05:36:53;13.20;;;4.40;;
77234;SDS011;66253;50.526;14.974;2024-02-21T05:39:21;9.40;;;3.80;;
77234;SDS011;66253;50.526;14.974;2024-02-21T05:41:50;9.30;;;2.70;;
77234;SDS011;66253;50.526;14.974;2024-02-21T05:44:18;12.70;;;3.30;;
77234;SDS011;66253;50.526;14.974;2024-02-21T05:46:46;9.60;;;3.20;;
77234;SDS011;66253;50.526;14.974;2024-02-21T05:49:14;8.90;;;3.10;;
77234;SDS011;66253;50.526;14.974;2024-02-21T05:51:42;8.10;;;3.00;;
77234;SDS011;66253;50.526;14.974;2024-02-21T05:54:11;11.60;;;3.30;;
77234;SDS011;66253;50.526;14.974;2024-02-21T05:56:39;15.40;;;5.10;;
77234;SDS011;66253;50.526;14.974;2024-02-21T05:59:10;12.70;;;3.80;;
77234;SDS011;66253;50.526;14.974;2024-02-21T06:01:38;8.60;;;3.10;;
77234;SDS011;66253;50.526;14.974;2024-02-21T06:04:06;10.60;;;3.30;;
77234;SDS011;66253;50.526;14.974;2024-02-21T06:06:34;7.80;;;3.00;;
77234;SDS011;66253;50.526;14.974;2024-02-21T06:09:03;8.90;;;3.00;;
77234;SDS011;66253;50.526;14.974;2024-02-21T06:11:31;11.70;;;3.60;;
77234;SDS011;66253;50.526;14.974;2024-02-21T06:13:59;10.10;;;3.60;;
77234;SDS011;66253;50.526;14.974;2024-02-21T06:16:29;8.40;;;3.10;;
77234;SDS011;66253;50.526;14.974;2024-02-21T06:18:57;9.30;;;3.10;;
77234;SDS011;66253;50.526;14.974;2024-02-21T06:21:29;10.00;;;3.70;;
77234;SDS011;66253;50.526;14.974;2024-02-21T06:23:58;9.40;;;3.10;;
77234;SDS011;66253;50.526;14.974;2024-02-21T06:26:26;8.90;;;3.80;;
77234;SDS011;66253;50.526;14.974;2024-02-21T06:28:54;11.30;;;3.60;;
77234;SDS011;66253;50.526;14.974;2024-02-21T06:31:22;10.70;;;3.60;;
77234;SDS011;66253;50.526;14.974;2024-02-21T06:33:50;8.70;;;3.50;;
77234;SDS011;66253;50.526;14.974;2024-02-21T06:36:18;8.70;;;3.40;;
77234;SDS011;66253;50.526;14.974;2024-02-21T06:38:47;11.20;;;3.80;;
77234;SDS011;66253;50.526;14.974;2024-02-21T06:41:18;11.20;;;3.90;;
77234;SDS011;66253;50.526;14.974;2024-02-21T06:43:46;12.90;;;4.20;;
77234;SDS011;66253;50.526;14.974;2024-02-21T06:46:23;13.70;;;4.40;;
77234;SDS011;66253;50.526;14.974;2024-02-21T06:48:52;10.80;;;4.40;;
77234;SDS011;66253;50.526;14.974;2024-02-21T06:51:20;12.10;;;4.20;;
77234;SDS011;66253;50.526;14.974;2024-02-21T06:53:48;11.90;;;3.80;;
77234;SDS011;66253;50.526;14.974;2024-02-21T06:56:17;11.60;;;4.20;;
77234;SDS011;66253;50.526;14.974;2024-02-21T06:58:45;13.10;;;4.50;;
77234;SDS011;66253;50.526;14.974;2024-02-21T07:01:13;13.90;;;4.60;;
77234;SDS011;66253;50.526;14.974;2024-02-21T07:03:41;13.70;;;5.20;;
77234;SDS011;66253;50.526;14.974;2024-02-21T07:06:10;11.20;;;3.80;;
77234;SDS011;66253;50.526;14.974;2024-02-21T07:08:38;14.40;;;4.10;;
77234;SDS011;66253;50.526;14.974;2024-02-21T07:11:06;13.70;;;4.10;;
77234;SDS011;66253;50.526;14.974;2024-02-21T07:13:34;13.90;;;4.20;;
77234;SDS011;66253;50.526;14.974;2024-02-21T07:16:02;11.60;;;3.80;;
77234;SDS011;66253;50.526;14.974;2024-02-21T07:18:31;12.40;;;4.30;;
77234;SDS011;66253;50.526;14.974;2024-02-21T07:20:59;13.60;;;4.60;;
77234;SDS011;66253;50.526;14.974;2024-02-21T07:23:29;12.20;;;4.90;;
77234;SDS011;66253;50.526;14.974;2024-02-21T07:25:57;14.00;;;5.70;;
77234;SDS011;66253;50.526;14.974;2024-02-21T07:28:25;14.00;;;5.20;;
77234;SDS011;66253;50.526;14.974;2024-02-21T07:30:54;11.60;;;4.50;;
77234;SDS011;66253;50.526;14.974;2024-02-21T07:33:22;14.50;;;6.30;;
77234;SDS011;66253;50.526;14.974;2024-02-21T07:35:50;15.80;;;6.50;;
77234;SDS011;66253;50.526;14.974;2024-02-21T07:38:18;13.80;;;5.50;;
77234;SDS011;66253;50.526;14.974;2024-02-21T07:40:47;15.10;;;6.10;;
77234;SDS011;66253;50.526;14.974;2024-02-21T07:43:15;13.00;;;4.40;;
77234;SDS011;66253;50.526;14.974;2024-02-21T07:45:43;10.50;;;4.30;;
77234;SDS011;66253;50.526;14.974;2024-02-21T07:48:11;13.70;;;4.40;;
77234;SDS011;66253;50.526;14.974;2024-02-21T07:50:40;10.50;;;4.40;;
77234;SDS011;66253;50.526;14.974;2024-02-21T07:53:08;14.40;;;5.80;;
77234;SDS011;66253;50.526;14.974;2024-02-21T07:55:36;17.40;;;5.50;;
77234;SDS011;66253;50.526;14.974;2024-02-21T07:58:04;11.20;;;5.20;;
77234;SDS011;66253;50.526;14.974;2024-02-21T08:00:32;24.60;;;9.00;;
77234;SDS011;66253;50.526;14.974;2024-02-21T08:03:01;30.30;;;11.50;;
77234;SDS011;66253;50.526;14.974;2024-02-21T08:05:29;29.00;;;11.70;;
77234;SDS011;66253;50.526;14.974;2024-02-21T08:08:00;47.00;;;21.50;;
77234;SDS011;66253;50.526;14.974;2024-02-21T08:10:28;48.00;;;20.20;;
77234;SDS011;66253;50.526;14.974;2024-02-21T08:12:56;48.30;;;21.20;;
77234;SDS011;66253;50.526;14.974;2024-02-21T08:15:25;35.10;;;15.40;;
77234;SDS011;66253;50.526;14.974;2024-02-21T08:17:53;30.90;;;13.20;;
77234;SDS011;66253;50.526;14.974;2024-02-21T08:20:21;23.80;;;9.50;;
77234;SDS011;66253;50.526;14.974;2024-02-21T08:22:49;19.40;;;8.30;;
77234;SDS011;66253;50.526;14.974;2024-02-21T08:25:17;18.60;;;6.60;;
77234;SDS011;66253;50.526;14.974;2024-02-21T08:27:45;16.30;;;6.10;;
77234;SDS011;66253;50.526;14.974;2024-02-21T08:30:14;13.90;;;6.00;;
77234;SDS011;66253;50.526;14.974;2024-02-21T08:32:43;12.00;;;5.20;;
77234;SDS011;66253;50.526;14.974;2024-02-21T08:35:11;13.90;;;4.40;;
77234;SDS011;66253;50.526;14.974;2024-02-21T08:37:40;15.50;;;3.60;;
77234;SDS011;66253;50.526;14.974;2024-02-21T08:40:08;13.30;;;4.20;;
77234;SDS011;66253;50.526;14.974;2024-02-21T08:42:37;15.80;;;5.90;;
77234;SDS011;66253;50.526;14.974;2024-02-21T08:45:07;18.50;;;6.40;;
77234;SDS011;66253;50.526;14.974;2024-02-21T08:47:36;16.30;;;4.80;;
77234;SDS011;66253;50.526;14.974;2024-02-21T08:50:07;13.60;;;4.60;;
77234;SDS011;66253;50.526;14.974;2024-02-21T08:52:36;9.90;;;3.70;;
77234;SDS011;66253;50.526;14.974;2024-02-21T08:55:05;10.90;;;4.00;;
77234;SDS011;66253;50.526;14.974;2024-02-21T08:57:34;11.60;;;4.80;;
77234;SDS011;66253;50.526;14.974;2024-02-21T09:00:02;12.00;;;4.30;;
77234;SDS011;66253;50.526;14.974;2024-02-21T09:02:34;14.00;;;4.10;;
77234;SDS011;66253;50.526;14.974;2024-02-21T09:05:02;13.60;;;4.20;;
77234;SDS011;66253;50.526;14.974;2024-02-21T09:07:31;12.90;;;4.20;;
77234;SDS011;66253;50.526;14.974;2024-02-21T09:09:59;15.50;;;5.50;;
77234;SDS011;66253;50.526;14.974;2024-02-21T09:12:29;11.00;;;4.50;;
77234;SDS011;66253;50.526;14.974;2024-02-21T09:14:57;13.60;;;5.00;;
77234;SDS011;66253;50.526;14.974;2024-02-21T09:17:27;14.60;;;5.40;;
77234;SDS011;66253;50.526;14.974;2024-02-21T09:19:55;11.60;;;3.90;;
77234;SDS011;66253;50.526;14.974;2024-02-21T09:22:23;15.40;;;4.80;;
77234;SDS011;66253;50.526;14.974;2024-02-21T09:24:51;11.50;;;4.00;;
77234;SDS011;66253;50.526;14.974;2024-02-21T09:27:19;13.00;;;3.90;;
77234;SDS011;66253;50.526;14.974;2024-02-21T09:29:47;13.70;;;4.00;;
77234;SDS011;66253;50.526;14.974;2024-02-21T09:32:15;14.40;;;4.00;;
77234;SDS011;66253;50.526;14.974;2024-02-21T09:34:44;9.90;;;4.60;;
77234;SDS011;66253;50.526;14.974;2024-02-21T09:37:12;12.70;;;3.90;;
77234;SDS011;66253;50.526;14.974;2024-02-21T09:39:41;11.80;;;3.50;;
77234;SDS011;66253;50.526;14.974;2024-02-21T09:42:09;12.10;;;3.70;;
77234;SDS011;66253;50.526;14.974;2024-02-21T09:44:39;11.30;;;4.20;;
77234;SDS011;66253;50.526;14.974;2024-02-21T09:47:09;11.10;;;3.30;;
77234;SDS011;66253;50.526;14.974;2024-02-21T09:49:42;13.70;;;3.30;;
77234;SDS011;66253;50.526;14.974;2024-02-21T09:52:11;11.10;;;3.40;;
77234;SDS011;66253;50.526;14.974;2024-02-21T09:54:41;11.10;;;3.60;;
77234;SDS011;66253;50.526;14.974;2024-02-21T09:57:09;12.40;;;3.70;;
77234;SDS011;66253;50.526;14.974;2024-02-21T09:59:37;12.10;;;3.80;;
77234;SDS011;66253;50.526;14.974;2024-02-21T10:02:06;12.80;;;4.30;;
77234;SDS011;66253;50.526;14.974;2024-02-21T10:04:34;14.90;;;4.60;;
77234;SDS011;66253;50.526;14.974;2024-02-21T10:07:02;11.20;;;3.60;;
77234;SDS011;66253;50.526;14.974;2024-02-21T10:09:30;11.20;;;3.60;;
77234;SDS011;66253;50.526;14.974;2024-02-21T10:12:08;11.10;;;3.60;;
77234;SDS011;66253;50.526;14.974;2024-02-21T10:14:39;10.00;;;3.20;;
77234;SDS011;66253;50.526;14.974;2024-02-21T10:17:08;10.40;;;3.90;;
77234;SDS011;66253;50.526;14.974;2024-02-21T10:19:41;8.10;;;3.40;;
77234;SDS011;66253;50.526;14.974;2024-02-21T10:22:09;10.30;;;3.80;;
77234;SDS011;66253;50.526;14.974;2024-02-21T10:24:37;11.70;;;3.50;;
77234;SDS011;66253;50.526;14.974;2024-02-21T10:27:06;12.90;;;3.90;;
77234;SDS011;66253;50.526;14.974;2024-02-21T10:29:35;11.50;;;4.00;;
77234;SDS011;66253;50.526;14.974;2024-02-21T10:32:07;8.70;;;4.00;;
77234;SDS011;66253;50.526;14.974;2024-02-21T10:34:36;9.50;;;3.70;;
77234;SDS011;66253;50.526;14.974;2024-02-21T10:37:06;13.40;;;3.80;;
77234;SDS011;66253;50.526;14.974;2024-02-21T10:39:36;11.40;;;3.90;;
77234;SDS011;66253;50.526;14.974;2024-02-21T10:42:05;12.10;;;3.80;;
77234;SDS011;66253;50.526;14.974;2024-02-21T10:44:37;10.20;;;3.50;;
77234;SDS011;66253;50.526;14.974;2024-02-21T10:47:07;17.30;;;6.00;;
77234;SDS011;66253;50.526;14.974;2024-02-21T10:49:38;17.50;;;6.10;;
77234;SDS011;66253;50.526;14.974;2024-02-21T10:52:09;24.90;;;11.00;;
77234;SDS011;66253;50.526;14.974;2024-02-21T10:54:43;24.20;;;10.40;;
77234;SDS011;66253;50.526;14.974;2024-02-21T10:57:14;16.20;;;6.30;;
77234;SDS011;66253;50.526;14.974;2024-02-21T10:59:44;16.10;;;5.20;;
77234;SDS011;66253;50.526;14.974;2024-02-21T11:02:14;10.20;;;4.80;;
77234;SDS011;66253;50.526;14.974;2024-02-21T11:04:43;14.30;;;5.60;;
77234;SDS011;66253;50.526;14.974;2024-02-21T11:07:12;14.10;;;6.40;;
77234;SDS011;66253;50.526;14.974;2024-02-21T11:09:50;10.70;;;4.80;;
77234;SDS011;66253;50.526;14.974;2024-02-21T11:12:21;18.20;;;8.00;;
77234;SDS011;66253;50.526;14.974;2024-02-21T11:14:49;18.50;;;8.00;;
77234;SDS011;66253;50.526;14.974;2024-02-21T11:17:18;15.50;;;5.10;;
77234;SDS011;66253;50.526;14.974;2024-02-21T11:19:47;12.70;;;5.20;;
77234;SDS011;66253;50.526;14.974;2024-02-21T11:22:15;10.70;;;3.40;;
77234;SDS011;66253;50.526;14.974;2024-02-21T11:24:44;13.50;;;4.90;;
77234;SDS011;66253;50.526;14.974;2024-02-21T11:27:14;11.60;;;3.80;;
77234;SDS011;66253;50.526;14.974;2024-02-21T11:29:45;12.70;;;4.00;;
77234;SDS011;66253;50.526;14.974;2024-02-21T11:32:15;9.70;;;3.60;;
77234;SDS011;66253;50.526;14.974;2024-02-21T11:34:54;10.50;;;3.70;;
77234;SDS011;66253;50.526;14.974;2024-02-21T11:37:23;10.40;;;3.20;;
77234;SDS011;66253;50.526;14.974;2024-02-21T11:39:52;10.50;;;3.50;;
77234;SDS011;66253;50.526;14.974;2024-02-21T11:42:21;9.70;;;4.40;;
77234;SDS011;66253;50.526;14.974;2024-02-21T11:44:51;9.80;;;3.00;;
77234;SDS011;66253;50.526;14.974;2024-02-21T11:47:19;10.20;;;3.40;;
77234;SDS011;66253;50.526;14.974;2024-02-21T11:49:48;11.30;;;4.10;;
77234;SDS011;66253;50.526;14.974;2024-02-21T11:52:16;8.50;;;3.10;;
77234;SDS011;66253;50.526;14.974;2024-02-21T11:54:45;10.20;;;3.90;;
77234;SDS011;66253;50.526;14.974;2024-02-21T11:57:13;9.70;;;3.10;;
77234;SDS011;66253;50.526;14.974;2024-02-21T11:59:41;8.90;;;3.80;;
77234;SDS011;66253;50.526;14.974;2024-02-21T12:02:11;8.70;;;3.40;;
77234;SDS011;66253;50.526;14.974;2024-02-21T12:04:40;10.70;;;8.20;;
77234;SDS011;66253;50.526;14.974;2024-02-21T12:07:08;11.50;;;5.00;;
77234;SDS011;66253;50.526;14.974;2024-02-21T12:09:37;9.10;;;3.70;;
77234;SDS011;66253;50.526;14.974;2024-02-21T12:12:08;13.00;;;4.90;;
77234;SDS011;66253;50.526;14.974;2024-02-21T12:14:36;15.40;;;7.90;;
77234;SDS011;66253;50.526;14.974;2024-02-21T12:17:04;9.90;;;4.60;;
77234;SDS011;66253;50.526;14.974;2024-02-21T12:19:33;8.80;;;4.90;;
77234;SDS011;66253;50.526;14.974;2024-02-21T12:22:01;10.00;;;4.80;;
77234;SDS011;66253;50.526;14.974;2024-02-21T12:24:30;10.70;;;5.10;;
77234;SDS011;66253;50.526;14.974;2024-02-21T12:26:58;11.50;;;8.20;;
77234;SDS011;66253;50.526;14.974;2024-02-21T12:29:29;9.40;;;4.60;;
77234;SDS011;66253;50.526;14.974;2024-02-21T12:31:57;8.80;;;4.00;;
77234;SDS011;66253;50.526;14.974;2024-02-21T12:34:25;11.30;;;4.60;;
77234;SDS011;66253;50.526;14.974;2024-02-21T12:36:54;12.10;;;3.70;;
77234;SDS011;66253;50.526;14.974;2024-02-21T12:39:24;10.50;;;4.10;;
77234;SDS011;66253;50.526;14.974;2024-02-21T12:41:53;10.80;;;4.00;;
77234;SDS011;66253;50.526;14.974;2024-02-21T12:44:22;7.50;;;3.40;;
77234;SDS011;66253;50.526;14.974;2024-02-21T12:46:50;7.90;;;3.10;;
77234;SDS011;66253;50.526;14.974;2024-02-21T12:49:18;9.60;;;3.70;;
77234;SDS011;66253;50.526;14.974;2024-02-21T12:51:47;8.80;;;3.20;;
77234;SDS011;66253;50.526;14.974;2024-02-21T12:54:15;11.60;;;3.30;;
77234;SDS011;66253;50.526;14.974;2024-02-21T12:56:43;9.90;;;4.10;;
77234;SDS011;66253;50.526;14.974;2024-02-21T12:59:11;8.20;;;4.30;;
77234;SDS011;66253;50.526;14.974;2024-02-21T13:01:39;8.70;;;3.40;;
77234;SDS011;66253;50.526;14.974;2024-02-21T13:04:08;11.00;;;2.90;;
77234;SDS011;66253;50.526;14.974;2024-02-21T13:06:36;10.60;;;4.10;;
77234;SDS011;66253;50.526;14.974;2024-02-21T13:09:04;9.10;;;3.50;;
77234;SDS011;66253;50.526;14.974;2024-02-21T13:11:32;6.40;;;3.00;;
77234;SDS011;66253;50.526;14.974;2024-02-21T13:14:00;10.30;;;3.90;;
77234;SDS011;66253;50.526;14.974;2024-02-21T13:16:29;12.20;;;3.90;;
77234;SDS011;66253;50.526;14.974;2024-02-21T13:18:57;8.30;;;3.60;;
77234;SDS011;66253;50.526;14.974;2024-02-21T13:21:26;8.10;;;2.90;;
77234;SDS011;66253;50.526;14.974;2024-02-21T13:23:54;10.50;;;3.80;;
77234;SDS011;66253;50.526;14.974;2024-02-21T13:26:22;7.50;;;2.60;;
77234;SDS011;66253;50.526;14.974;2024-02-21T13:28:51;12.10;;;3.30;;
77234;SDS011;66253;50.526;14.974;2024-02-21T13:31:19;9.80;;;3.40;;
77234;SDS011;66253;50.526;14.974;2024-02-21T13:33:47;7.20;;;3.40;;
77234;SDS011;66253;50.526;14.974;2024-02-21T13:36:15;6.70;;;2.40;;
77234;SDS011;66253;50.526;14.974;2024-02-21T13:38:43;7.30;;;2.90;;
77234;SDS011;66253;50.526;14.974;2024-02-21T13:41:12;7.80;;;3.10;;
77234;SDS011;66253;50.526;14.974;2024-02-21T13:43:40;6.80;;;2.50;;
77234;SDS011;66253;50.526;14.974;2024-02-21T13:46:08;6.60;;;2.10;;
77234;SDS011;66253;50.526;14.974;2024-02-21T13:48:36;6.90;;;2.80;;
77234;SDS011;66253;50.526;14.974;2024-02-21T13:51:05;10.00;;;2.50;;
77234;SDS011;66253;50.526;14.974;2024-02-21T13:53:33;8.10;;;2.60;;
77234;SDS011;66253;50.526;14.974;2024-02-21T13:56:01;7.30;;;2.00;;
77234;SDS011;66253;50.526;14.974;2024-02-21T13:58:30;8.50;;;3.60;;
77234;SDS011;66253;50.526;14.974;2024-02-21T14:00:58;10.70;;;2.70;;
77234;SDS011;66253;50.526;14.974;2024-02-21T14:03:26;7.10;;;2.20;;
77234;SDS011;66253;50.526;14.974;2024-02-21T14:05:54;7.30;;;2.60;;
77234;SDS011;66253;50.526;14.974;2024-02-21T14:08:23;7.20;;;3.10;;
77234;SDS011;66253;50.526;14.974;2024-02-21T14:10:51;6.70;;;3.20;;
77234;SDS011;66253;50.526;14.974;2024-02-21T14:13:19;7.60;;;2.50;;
77234;SDS011;66253;50.526;14.974;2024-02-21T14:15:48;11.90;;;3.20;;
77234;SDS011;66253;50.526;14.974;2024-02-21T14:18:16;7.00;;;2.80;;
77234;SDS011;66253;50.526;14.974;2024-02-21T14:20:45;9.90;;;3.50;;
77234;SDS011;66253;50.526;14.974;2024-02-21T14:23:13;8.60;;;3.50;;
77234;SDS011;66253;50.526;14.974;2024-02-21T14:25:41;10.10;;;3.10;;
77234;SDS011;66253;50.526;14.974;2024-02-21T14:28:12;7.60;;;3.20;;
77234;SDS011;66253;50.526;14.974;2024-02-21T14:30:41;7.70;;;3.70;;
77234;SDS011;66253;50.526;14.974;2024-02-21T14:33:09;11.10;;;3.10;;
77234;SDS011;66253;50.526;14.974;2024-02-21T14:35:37;7.60;;;3.00;;